createdAt,value
2023-03-22T00:00:05.456Z,0.00
2023-03-22T00:01:05.443Z,0.00
2023-03-22T00:02:05.436Z,0.00
2023-03-22T00:03:05.523Z,0.00
2023-03-22T00:04:05.524Z,0.00
2023-03-22T00:05:05.378Z,0.00
2023-03-22T00:06:05.380Z,0.00
2023-03-22T00:07:05.353Z,0.00
2023-03-22T00:08:05.341Z,0.00
2023-03-22T00:09:05.332Z,0.00
2023-03-22T00:10:05.315Z,0.00
2023-03-22T00:11:05.299Z,0.00
2023-03-22T00:12:05.291Z,0.00
2023-03-22T00:13:05.274Z,0.00
2023-03-22T00:14:05.262Z,0.00
2023-03-22T00:15:05.248Z,0.00
2023-03-22T00:16:05.344Z,0.00
2023-03-22T00:17:05.224Z,0.00
2023-03-22T00:18:05.211Z,0.00
2023-03-22T00:19:05.224Z,0.00
2023-03-22T00:20:05.178Z,0.00
2023-03-22T00:21:05.161Z,0.00
2023-03-22T00:22:05.148Z,0.00
2023-03-22T00:23:05.135Z,0.00
2023-03-22T00:24:05.121Z,0.00
2023-03-22T00:25:05.110Z,0.00
2023-03-22T00:26:05.089Z,0.00
2023-03-22T00:27:05.080Z,0.00
2023-03-22T00:28:05.066Z,0.00
2023-03-22T00:29:05.061Z,0.00
2023-03-22T00:30:05.041Z,0.00
2023-03-22T00:31:05.132Z,0.00
2023-03-22T00:32:05.015Z,0.00
2023-03-22T00:33:05.001Z,0.00
2023-03-22T00:34:04.987Z,0.00
2023-03-22T00:35:05.006Z,0.00
2023-03-22T00:36:04.954Z,0.00
2023-03-22T00:37:04.943Z,0.00
2023-03-22T00:38:04.932Z,0.00
2023-03-22T00:39:04.927Z,0.00
2023-03-22T00:40:04.979Z,0.00
2023-03-22T00:41:04.890Z,0.00
2023-03-22T00:42:04.894Z,0.00
2023-03-22T00:43:04.860Z,0.00
2023-03-22T00:44:04.853Z,0.00
2023-03-22T00:45:04.846Z,0.00
2023-03-22T00:46:04.911Z,0.00
2023-03-22T00:47:04.821Z,0.00
2023-03-22T00:48:04.855Z,0.00
2023-03-22T00:49:04.784Z,0.00
2023-03-22T00:50:04.770Z,0.00
2023-03-22T00:51:04.797Z,0.00
2023-03-22T00:52:04.741Z,0.00
2023-03-22T00:53:04.728Z,0.00
2023-03-22T00:54:04.708Z,0.00
2023-03-22T00:55:04.700Z,0.00
2023-03-22T00:56:04.696Z,0.00
2023-03-22T00:57:04.675Z,0.00
2023-03-22T00:58:04.666Z,0.00
2023-03-22T00:59:04.649Z,0.00
2023-03-22T01:00:04.627Z,0.00
2023-03-22T01:01:04.649Z,0.00
2023-03-22T01:02:04.601Z,0.00
2023-03-22T01:03:04.588Z,0.00
2023-03-22T01:04:04.578Z,0.00
2023-03-22T01:05:04.561Z,0.00
2023-03-22T01:06:04.553Z,0.00
2023-03-22T01:07:04.559Z,0.00
2023-03-22T01:08:04.522Z,0.00
2023-03-22T01:09:04.510Z,0.00
2023-03-22T01:10:04.495Z,0.00
2023-03-22T01:11:04.484Z,0.00
2023-03-22T01:12:04.472Z,0.00
2023-03-22T01:13:04.455Z,0.00
2023-03-22T01:14:04.439Z,0.00
2023-03-22T01:15:04.432Z,0.00
2023-03-22T01:16:04.431Z,0.00
2023-03-22T01:17:04.396Z,0.00
2023-03-22T01:18:04.385Z,0.00
2023-03-22T01:19:04.377Z,0.00
2023-03-22T01:20:04.354Z,0.00
2023-03-22T01:21:04.403Z,0.00
2023-03-22T01:22:04.326Z,0.00
2023-03-22T01:23:04.355Z,0.00
2023-03-22T01:24:04.307Z,0.00
2023-03-22T01:25:04.291Z,0.00
2023-03-22T01:26:04.280Z,0.00
2023-03-22T01:27:04.274Z,0.00
2023-03-22T01:28:04.242Z,0.00
2023-03-22T01:29:04.231Z,0.00
2023-03-22T01:30:04.233Z,0.00
2023-03-22T01:31:04.325Z,0.00
2023-03-22T01:32:04.221Z,0.00
2023-03-22T01:33:04.188Z,0.00
2023-03-22T01:34:04.188Z,0.00
2023-03-22T01:35:04.155Z,0.00
2023-03-22T01:36:04.202Z,0.00
2023-03-22T01:37:04.130Z,0.00
2023-03-22T01:38:04.131Z,0.00
2023-03-22T01:39:04.133Z,0.00
2023-03-22T01:40:04.084Z,0.00
2023-03-22T01:41:04.074Z,0.00
2023-03-22T01:42:04.057Z,0.00
2023-03-22T01:43:04.064Z,0.00
2023-03-22T01:44:04.029Z,0.00
2023-03-22T01:45:04.021Z,0.00
2023-03-22T01:46:04.041Z,0.00
2023-03-22T01:47:03.989Z,0.00
2023-03-22T01:48:04.066Z,0.00
2023-03-22T01:49:04.020Z,0.00
2023-03-22T01:50:03.955Z,0.00
2023-03-22T01:51:03.938Z,0.00
2023-03-22T01:52:03.937Z,0.00
2023-03-22T01:53:03.916Z,0.00
2023-03-22T01:54:03.917Z,0.00
2023-03-22T01:55:03.911Z,0.00
2023-03-22T01:56:03.880Z,0.00
2023-03-22T01:57:03.873Z,0.00
2023-03-22T01:58:03.839Z,0.00
2023-03-22T01:59:03.829Z,0.00
2023-03-22T02:00:03.822Z,0.00
2023-03-22T02:01:03.886Z,0.00
2023-03-22T02:02:03.798Z,0.00
2023-03-22T02:03:03.850Z,0.00
2023-03-22T02:04:03.772Z,0.00
2023-03-22T02:05:03.748Z,0.00
2023-03-22T02:06:03.730Z,0.00
2023-03-22T02:07:03.719Z,0.00
2023-03-22T02:08:03.705Z,0.00
2023-03-22T02:09:03.693Z,0.00
2023-03-22T02:10:03.685Z,0.00
2023-03-22T02:11:03.693Z,0.00
2023-03-22T02:12:03.654Z,0.00
2023-03-22T02:13:03.644Z,0.00
2023-03-22T02:14:03.626Z,0.00
2023-03-22T02:15:03.616Z,0.00
2023-03-22T02:16:03.616Z,0.00
2023-03-22T02:17:03.588Z,0.00
2023-03-22T02:18:03.571Z,0.00
2023-03-22T02:19:03.558Z,0.00
2023-03-22T02:20:03.546Z,0.00
2023-03-22T02:21:03.535Z,0.00
2023-03-22T02:22:03.519Z,0.00
2023-03-22T02:23:03.504Z,0.00
2023-03-22T02:24:03.495Z,0.00
2023-03-22T02:25:03.498Z,0.00
2023-03-22T02:26:03.463Z,0.00
2023-03-22T02:27:03.473Z,0.00
2023-03-22T02:28:03.440Z,0.00
2023-03-22T02:29:03.430Z,0.00
2023-03-22T02:30:03.412Z,0.00
2023-03-22T02:31:03.506Z,0.00
2023-03-22T02:32:03.375Z,0.00
2023-03-22T02:33:03.369Z,0.00
2023-03-22T02:34:03.355Z,0.00
2023-03-22T02:35:03.364Z,0.00
2023-03-22T02:36:03.324Z,0.00
2023-03-22T02:37:03.312Z,0.00
2023-03-22T02:38:03.306Z,0.00
2023-03-22T02:39:03.287Z,0.00
2023-03-22T02:40:03.270Z,0.00
2023-03-22T02:41:03.256Z,0.00
2023-03-22T02:42:03.254Z,0.00
2023-03-22T02:43:03.250Z,0.00
2023-03-22T02:44:03.218Z,0.00
2023-03-22T02:45:03.201Z,0.00
2023-03-22T02:46:03.187Z,0.00
2023-03-22T02:47:03.173Z,0.00
2023-03-22T02:48:03.241Z,0.00
2023-03-22T02:49:03.156Z,0.00
2023-03-22T02:50:03.133Z,0.00
2023-03-22T02:51:03.121Z,0.00
2023-03-22T02:52:03.111Z,0.00
2023-03-22T02:53:03.096Z,0.00
2023-03-22T02:54:03.094Z,0.00
2023-03-22T02:55:03.077Z,0.00
2023-03-22T02:56:03.104Z,0.00
2023-03-22T02:57:03.049Z,0.00
2023-03-22T02:58:03.225Z,0.00
2023-03-22T02:59:03.094Z,0.00
2023-03-22T03:00:02.998Z,0.00
2023-03-22T03:01:03.053Z,0.00
2023-03-22T03:02:03.030Z,0.00
2023-03-22T03:03:02.957Z,0.00
2023-03-22T03:04:02.941Z,0.00
2023-03-22T03:05:02.943Z,0.00
2023-03-22T03:06:02.944Z,0.00
2023-03-22T03:07:02.900Z,0.00
2023-03-22T03:08:02.896Z,0.00
2023-03-22T03:09:02.885Z,0.00
2023-03-22T03:10:02.857Z,0.00
2023-03-22T03:11:02.845Z,0.00
2023-03-22T03:12:02.829Z,0.00
2023-03-22T03:13:02.814Z,0.00
2023-03-22T03:14:02.801Z,0.00
2023-03-22T03:15:02.809Z,0.00
2023-03-22T03:16:03.002Z,0.00
2023-03-22T03:17:02.756Z,0.00
2023-03-22T03:18:02.748Z,0.00
2023-03-22T03:19:02.733Z,0.00
2023-03-22T03:20:02.724Z,0.00
2023-03-22T03:21:02.702Z,0.00
2023-03-22T03:22:02.744Z,0.00
2023-03-22T03:23:02.672Z,0.00
2023-03-22T03:24:02.671Z,0.00
2023-03-22T03:25:02.652Z,0.00
2023-03-22T03:26:02.649Z,0.00
2023-03-22T03:27:02.627Z,0.00
2023-03-22T03:28:02.619Z,0.00
2023-03-22T03:29:02.597Z,0.00
2023-03-22T03:30:02.603Z,0.00
2023-03-22T03:31:02.596Z,0.00
2023-03-22T03:32:02.566Z,0.00
2023-03-22T03:33:02.542Z,0.00
2023-03-22T03:34:02.529Z,0.00
2023-03-22T03:35:02.516Z,0.00
2023-03-22T03:36:02.501Z,0.00
2023-03-22T03:37:02.483Z,0.00
2023-03-22T03:38:02.476Z,0.00
2023-03-22T03:39:02.461Z,0.00
2023-03-22T03:40:02.451Z,0.00
2023-03-22T03:41:02.435Z,0.00
2023-03-22T03:42:02.423Z,0.00
2023-03-22T03:43:02.929Z,0.00
2023-03-22T03:44:02.410Z,0.00
2023-03-22T03:45:02.380Z,0.00
2023-03-22T03:46:02.684Z,0.00
2023-03-22T03:47:02.382Z,0.00
2023-03-22T03:48:02.418Z,0.00
2023-03-22T03:49:02.333Z,0.00
2023-03-22T03:50:02.341Z,0.00
2023-03-22T03:51:02.322Z,0.00
2023-03-22T03:52:02.286Z,0.00
2023-03-22T03:53:02.274Z,0.00
2023-03-22T03:54:02.256Z,0.00
2023-03-22T03:55:02.247Z,0.00
2023-03-22T03:56:02.248Z,0.00
2023-03-22T03:57:03.990Z,0.00
2023-03-22T03:58:02.239Z,0.00
2023-03-22T03:59:02.194Z,0.00
2023-03-22T04:00:02.287Z,0.00
2023-03-22T04:01:02.191Z,0.00
2023-03-22T04:02:02.237Z,0.00
2023-03-22T04:03:02.165Z,0.00
2023-03-22T04:04:02.188Z,0.00
2023-03-22T04:05:02.114Z,0.00
2023-03-22T04:06:02.110Z,0.00
2023-03-22T04:07:02.436Z,0.00
2023-03-22T04:08:02.277Z,0.00
2023-03-22T04:09:02.078Z,0.00
2023-03-22T04:10:02.196Z,0.00
2023-03-22T04:11:02.039Z,0.00
2023-03-22T04:12:02.024Z,0.00
2023-03-22T04:13:02.464Z,0.00
2023-03-22T04:14:02.298Z,0.00
2023-03-22T04:15:01.985Z,0.00
2023-03-22T04:16:02.322Z,0.00
2023-03-22T04:17:02.350Z,0.00
2023-03-22T04:18:01.957Z,0.00
2023-03-22T04:19:01.958Z,0.00
2023-03-22T04:20:03.615Z,0.00
2023-03-22T04:21:01.913Z,0.00
2023-03-22T04:22:01.896Z,0.00
2023-03-22T04:23:01.872Z,0.00
2023-03-22T04:24:01.885Z,0.00
2023-03-22T04:25:01.847Z,0.00
2023-03-22T04:26:01.840Z,0.00
2023-03-22T04:27:01.822Z,0.00
2023-03-22T04:28:01.811Z,0.00
2023-03-22T04:29:01.799Z,0.00
2023-03-22T04:30:01.783Z,0.00
2023-03-22T04:31:01.825Z,0.00
2023-03-22T04:32:01.761Z,0.00
2023-03-22T04:33:01.744Z,0.00
2023-03-22T04:34:01.728Z,0.00
2023-03-22T04:35:01.746Z,0.00
2023-03-22T04:36:04.424Z,0.00
2023-03-22T04:37:01.692Z,0.00
2023-03-22T04:38:01.683Z,0.00
2023-03-22T04:39:01.667Z,0.00
2023-03-22T04:40:01.643Z,0.00
2023-03-22T04:41:01.646Z,0.00
2023-03-22T04:42:01.617Z,0.00
2023-03-22T04:43:01.615Z,0.00
2023-03-22T04:44:01.595Z,0.00
2023-03-22T04:45:01.580Z,0.00
2023-03-22T04:46:01.614Z,0.00
2023-03-22T04:47:01.572Z,0.00
2023-03-22T04:48:01.611Z,0.00
2023-03-22T04:49:01.547Z,0.00
2023-03-22T04:50:01.520Z,0.00
2023-03-22T04:51:01.536Z,0.00
2023-03-22T04:52:01.503Z,0.00
2023-03-22T04:53:01.479Z,0.00
2023-03-22T04:54:01.463Z,0.00
2023-03-22T04:55:01.444Z,0.00
2023-03-22T04:56:01.433Z,4.00
2023-03-22T04:57:01.416Z,4.00
2023-03-22T04:58:01.428Z,0.00
2023-03-22T04:59:01.393Z,4.00
2023-03-22T05:00:01.376Z,4.00
2023-03-22T05:01:01.368Z,4.00
2023-03-22T05:02:01.505Z,4.00
2023-03-22T05:03:01.411Z,8.00
2023-03-22T05:04:01.330Z,8.00
2023-03-22T05:05:01.321Z,8.00
2023-03-22T05:06:01.301Z,12.00
2023-03-22T05:07:01.320Z,16.00
2023-03-22T05:08:01.317Z,20.00
2023-03-22T05:09:01.263Z,20.00
2023-03-22T05:10:01.598Z,24.00
2023-03-22T05:11:01.232Z,28.00
2023-03-22T05:12:01.224Z,36.00
2023-03-22T05:13:01.301Z,40.00
2023-03-22T05:14:01.187Z,52.00
2023-03-22T05:15:01.171Z,60.00
2023-03-22T05:16:01.213Z,68.00
2023-03-22T05:17:01.154Z,76.00
2023-03-22T05:18:01.281Z,88.00
2023-03-22T05:19:01.122Z,100.00
2023-03-22T05:20:01.123Z,112.00
2023-03-22T05:21:01.096Z,128.00
2023-03-22T05:22:01.076Z,140.00
2023-03-22T05:23:01.297Z,156.00
2023-03-22T05:24:01.058Z,172.00
2023-03-22T05:25:01.036Z,188.00
2023-03-22T05:26:01.028Z,208.00
2023-03-22T05:27:01.182Z,228.00
2023-03-22T05:28:01.308Z,248.00
2023-03-22T05:29:00.985Z,272.00
2023-03-22T05:30:00.972Z,300.00
2023-03-22T05:31:00.960Z,328.00
2023-03-22T05:32:00.943Z,356.00
2023-03-22T05:33:00.933Z,384.00
2023-03-22T05:34:00.920Z,416.00
2023-03-22T05:35:00.904Z,448.00
2023-03-22T05:36:00.887Z,484.00
2023-03-22T05:37:00.890Z,524.00
2023-03-22T05:38:00.863Z,568.00
2023-03-22T05:39:00.888Z,612.00
2023-03-22T05:40:00.832Z,656.00
2023-03-22T05:41:00.826Z,704.00
2023-03-22T05:42:00.807Z,752.00
2023-03-22T05:43:00.798Z,812.00
2023-03-22T05:44:00.783Z,880.00
2023-03-22T05:45:00.771Z,940.00
2023-03-22T05:46:00.765Z,996.00
2023-03-22T05:47:00.792Z,1056.00
2023-03-22T05:48:00.800Z,1084.00
2023-03-22T05:49:00.721Z,1120.00
2023-03-22T05:50:00.701Z,1168.00
2023-03-22T05:51:00.693Z,1244.00
2023-03-22T05:52:00.682Z,1292.00
2023-03-22T05:53:00.670Z,1284.00
2023-03-22T05:54:00.645Z,1256.00
2023-03-22T05:55:00.672Z,1268.00
2023-03-22T05:56:00.673Z,1292.00
2023-03-22T05:57:00.615Z,1328.00
2023-03-22T05:58:00.595Z,1368.00
2023-03-22T05:59:00.584Z,1404.00
2023-03-22T06:00:00.573Z,1468.00
2023-03-22T06:01:00.559Z,1568.00
2023-03-22T06:02:00.579Z,1652.00
2023-03-22T06:03:00.620Z,1712.00
2023-03-22T06:04:00.558Z,1748.00
2023-03-22T06:05:00.514Z,1800.00
2023-03-22T06:06:00.496Z,1920.00
2023-03-22T06:07:00.494Z,2128.00
2023-03-22T06:08:00.469Z,2340.00
2023-03-22T06:09:10.681Z,2444.00
2023-03-22T06:10:01.476Z,2540.00
2023-03-22T06:11:00.453Z,2628.00
2023-03-22T06:12:00.416Z,2720.00
2023-03-22T06:13:00.439Z,2860.00
2023-03-22T06:14:00.384Z,2912.00
2023-03-22T06:15:00.367Z,2964.00
2023-03-22T06:16:00.351Z,3040.00
2023-03-22T06:17:00.345Z,3272.00
2023-03-22T06:18:00.325Z,3644.00
2023-03-22T06:19:00.336Z,4036.00
2023-03-22T06:20:00.305Z,4388.00
2023-03-22T06:21:00.316Z,4716.00
2023-03-22T06:22:00.272Z,5052.00
2023-03-22T06:23:00.258Z,5464.00
2023-03-22T06:24:00.251Z,5744.00
2023-03-22T06:25:00.239Z,5876.00
2023-03-22T06:26:00.241Z,5968.00
2023-03-22T06:27:00.231Z,5956.00
2023-03-22T06:28:00.191Z,6296.00
2023-03-22T06:29:00.187Z,6544.00
2023-03-22T06:30:00.182Z,6860.00
2023-03-22T06:31:00.202Z,7056.00
2023-03-22T06:32:00.143Z,7052.00
2023-03-22T06:33:00.118Z,7032.00
2023-03-22T06:34:00.124Z,7168.00
2023-03-22T06:35:00.107Z,7424.00
2023-03-22T06:36:00.074Z,7556.00
2023-03-22T06:37:00.087Z,7632.00
2023-03-22T06:38:00.043Z,7628.00
2023-03-22T06:39:00.040Z,7844.00
2023-03-22T06:40:00.028Z,8124.00
2023-03-22T06:41:00.007Z,8364.00
2023-03-22T06:41:59.987Z,8548.00
2023-03-22T06:43:03.598Z,8820.00
2023-03-22T06:43:59.967Z,9036.00
2023-03-22T06:44:59.953Z,9224.00
2023-03-22T06:46:00.211Z,9384.00
2023-03-22T06:46:59.924Z,9436.00
2023-03-22T06:47:59.996Z,9696.00
2023-03-22T06:48:59.953Z,9812.00
2023-03-22T06:49:59.969Z,9920.00
2023-03-22T06:50:59.870Z,10384.00
2023-03-22T06:51:59.856Z,11052.00
2023-03-22T06:52:59.836Z,11304.00
2023-03-22T06:53:59.830Z,11256.00
2023-03-22T06:54:59.810Z,11352.00
2023-03-22T06:55:59.802Z,11432.00
2023-03-22T06:56:59.788Z,11560.00
2023-03-22T06:57:59.772Z,11708.00
2023-03-22T06:58:59.788Z,11760.00
2023-03-22T06:59:59.744Z,12028.00
2023-03-22T07:00:59.821Z,12152.00
2023-03-22T07:01:59.721Z,12388.00
2023-03-22T07:02:59.709Z,12184.00
2023-03-22T07:03:59.822Z,12448.00
2023-03-22T07:04:59.678Z,12800.00
2023-03-22T07:05:59.681Z,13216.00
2023-03-22T07:06:59.664Z,13984.00
2023-03-22T07:07:59.631Z,14400.00
2023-03-22T07:08:59.619Z,14688.00
2023-03-22T07:09:59.612Z,15072.00
2023-03-22T07:10:59.596Z,15200.00
2023-03-22T07:11:59.580Z,15264.00
2023-03-22T07:12:59.566Z,15488.00
2023-03-22T07:13:59.552Z,15392.00
2023-03-22T07:14:59.618Z,15296.00
2023-03-22T07:15:59.583Z,15648.00
2023-03-22T07:16:59.527Z,15552.00
2023-03-22T07:17:59.500Z,15648.00
2023-03-22T07:18:59.490Z,15808.00
2023-03-22T07:19:59.471Z,15968.00
2023-03-22T07:20:59.476Z,16480.00
2023-03-22T07:21:59.443Z,16640.00
2023-03-22T07:22:59.432Z,17120.00
2023-03-22T07:23:59.427Z,17504.00
2023-03-22T07:25:01.674Z,17696.00
2023-03-22T07:25:59.399Z,17760.00
2023-03-22T07:26:59.383Z,17760.00
2023-03-22T07:27:59.376Z,17920.00
2023-03-22T07:28:59.358Z,17824.00
2023-03-22T07:29:59.338Z,17376.00
2023-03-22T07:30:59.359Z,17088.00
2023-03-22T07:31:59.403Z,17600.00
2023-03-22T07:32:59.320Z,18048.00
2023-03-22T07:33:59.280Z,18496.00
2023-03-22T07:34:59.524Z,18208.00
2023-03-22T07:35:59.335Z,18432.00
2023-03-22T07:36:59.250Z,18272.00
2023-03-22T07:37:59.234Z,17312.00
2023-03-22T07:38:59.218Z,18432.00
2023-03-22T07:39:59.204Z,18848.00
2023-03-22T07:40:59.212Z,18720.00
2023-03-22T07:41:59.177Z,19104.00
2023-03-22T07:42:59.181Z,18752.00
2023-03-22T07:44:14.766Z,19136.00
2023-03-22T07:45:00.265Z,19936.00
2023-03-22T07:45:59.138Z,20000.00
2023-03-22T07:46:59.294Z,20704.00
2023-03-22T07:47:59.547Z,22240.00
2023-03-22T07:48:59.098Z,23328.00
2023-03-22T07:49:59.074Z,24288.00
2023-03-22T07:50:59.080Z,23936.00
2023-03-22T07:51:59.093Z,23200.00
2023-03-22T07:52:59.054Z,22400.00
2023-03-22T07:53:59.039Z,23552.00
2023-03-22T07:54:59.012Z,24064.00
2023-03-22T07:55:59.000Z,25408.00
2023-03-22T07:56:58.982Z,25152.00
2023-03-22T07:57:58.978Z,24896.00
2023-03-22T07:58:59.049Z,23840.00
2023-03-22T07:59:58.945Z,20704.00
2023-03-22T08:00:58.933Z,14048.00
2023-03-22T08:01:58.950Z,15616.00
2023-03-22T08:02:58.995Z,16064.00
2023-03-22T08:03:58.899Z,12180.00
2023-03-22T08:04:58.881Z,8736.00
2023-03-22T08:05:58.878Z,8120.00
2023-03-22T08:06:58.855Z,7852.00
2023-03-22T08:07:58.850Z,7992.00
2023-03-22T08:08:58.827Z,7900.00
2023-03-22T08:09:59.319Z,8564.00
2023-03-22T08:10:58.804Z,8628.00
2023-03-22T08:11:58.787Z,8524.00
2023-03-22T08:12:58.775Z,7784.00
2023-03-22T08:13:58.763Z,7380.00
2023-03-22T08:14:58.741Z,7052.00
2023-03-22T08:15:58.961Z,8020.00
2023-03-22T08:16:58.725Z,9568.00
2023-03-22T08:17:58.698Z,8548.00
2023-03-22T08:18:58.723Z,7720.00
2023-03-22T08:19:58.682Z,7308.00
2023-03-22T08:20:58.666Z,6852.00
2023-03-22T08:21:58.648Z,7084.00
2023-03-22T08:22:58.650Z,7700.00
2023-03-22T08:23:58.616Z,10788.00
2023-03-22T08:24:58.606Z,20384.00
2023-03-22T08:25:58.609Z,30016.00
2023-03-22T08:26:58.579Z,31744.00
2023-03-22T08:27:58.583Z,29280.00
2023-03-22T08:28:58.552Z,27296.00
2023-03-22T08:29:58.592Z,33312.00
2023-03-22T08:30:58.531Z,32608.00
2023-03-22T08:31:58.566Z,33248.00
2023-03-22T08:32:58.500Z,35392.00
2023-03-22T08:33:58.489Z,36128.00
2023-03-22T08:34:58.503Z,34816.00
2023-03-22T08:35:58.495Z,35328.00
2023-03-22T08:36:58.442Z,35776.00
2023-03-22T08:37:58.437Z,35424.00
2023-03-22T08:38:58.415Z,35424.00
2023-03-22T08:39:58.457Z,35136.00
2023-03-22T08:40:58.393Z,34208.00
2023-03-22T08:41:58.379Z,35200.00
2023-03-22T08:42:58.379Z,34464.00
2023-03-22T08:43:58.370Z,36864.00
2023-03-22T08:44:58.342Z,40704.00
2023-03-22T08:45:58.356Z,41856.00
2023-03-22T08:46:58.319Z,42912.00
2023-03-22T08:47:58.306Z,43232.00
2023-03-22T08:48:58.289Z,40160.00
2023-03-22T08:49:58.273Z,40992.00
2023-03-22T08:50:58.292Z,41664.00
2023-03-22T08:51:58.244Z,40608.00
2023-03-22T08:52:58.231Z,42304.00
2023-03-22T08:53:58.213Z,43200.00
2023-03-22T08:54:58.208Z,43328.00
2023-03-22T08:55:58.250Z,46368.00
2023-03-22T08:56:58.204Z,43648.00
2023-03-22T08:57:58.168Z,42304.00
2023-03-22T08:58:58.182Z,46720.00
2023-03-22T08:59:58.141Z,46016.00
2023-03-22T09:00:58.317Z,44000.00
2023-03-22T09:01:58.457Z,44864.00
2023-03-22T09:02:58.114Z,44416.00
2023-03-22T09:03:58.261Z,42144.00
2023-03-22T09:04:58.131Z,43552.00
2023-03-22T09:05:58.055Z,41728.00
2023-03-22T09:06:58.077Z,41440.00
2023-03-22T09:08:05.848Z,44512.00
2023-03-22T09:08:59.053Z,42784.00
2023-03-22T09:09:58.010Z,45248.00
2023-03-22T09:10:58.013Z,47104.00
2023-03-22T09:11:57.981Z,46368.00
2023-03-22T09:12:58.075Z,47168.00
2023-03-22T09:13:58.155Z,48096.00
2023-03-22T09:14:57.945Z,45696.00
2023-03-22T09:15:58.009Z,46816.00
2023-03-22T09:16:57.917Z,45312.00
2023-03-22T09:17:58.212Z,45568.00
2023-03-22T09:18:58.098Z,45664.00
2023-03-22T09:20:11.433Z,46944.00
2023-03-22T09:20:58.914Z,45696.00
2023-03-22T09:21:57.880Z,47872.00
2023-03-22T09:22:57.861Z,45280.00
2023-03-22T09:23:57.905Z,45728.00
2023-03-22T09:24:57.816Z,47712.00
2023-03-22T09:25:57.809Z,43488.00
2023-03-22T09:26:57.785Z,45216.00
2023-03-22T09:27:58.078Z,42400.00
2023-03-22T09:28:57.809Z,42624.00
2023-03-22T09:29:57.751Z,48160.00
2023-03-22T09:30:57.782Z,45312.00
2023-03-22T09:31:57.730Z,45984.00
2023-03-22T09:32:57.712Z,46528.00
2023-03-22T09:33:57.833Z,48128.00
2023-03-22T09:34:57.685Z,47424.00
2023-03-22T09:35:57.707Z,46112.00
2023-03-22T09:36:58.606Z,48896.00
2023-03-22T09:37:57.653Z,48128.00
2023-03-22T09:38:57.698Z,44448.00
2023-03-22T09:39:57.620Z,45856.00
2023-03-22T09:40:57.612Z,45888.00
2023-03-22T09:41:57.598Z,44224.00
2023-03-22T09:42:57.596Z,46176.00
2023-03-22T09:43:57.724Z,43232.00
2023-03-22T09:44:57.614Z,34176.00
2023-03-22T09:45:57.570Z,22912.00
2023-03-22T09:46:57.541Z,16256.00
2023-03-22T09:47:57.564Z,15168.00
2023-03-22T09:48:57.658Z,14468.00
2023-03-22T09:49:57.803Z,13860.00
2023-03-22T09:50:57.484Z,13752.00
2023-03-22T09:51:57.493Z,13888.00
2023-03-22T09:52:57.456Z,13768.00
2023-03-22T09:53:57.451Z,16768.00
2023-03-22T09:54:57.456Z,21472.00
2023-03-22T09:55:57.438Z,23296.00
2023-03-22T09:56:57.658Z,22912.00
2023-03-22T09:57:57.400Z,20672.00
2023-03-22T09:58:57.489Z,21632.00
2023-03-22T09:59:57.370Z,22528.00
2023-03-22T10:00:57.480Z,22400.00
2023-03-22T10:01:57.649Z,22976.00
2023-03-22T10:02:57.340Z,23264.00
2023-03-22T10:03:57.576Z,23648.00
2023-03-22T10:04:57.316Z,24000.00
2023-03-22T10:05:57.319Z,24192.00
2023-03-22T10:06:57.279Z,23680.00
2023-03-22T10:07:57.273Z,20384.00
2023-03-22T10:08:57.255Z,15232.00
2023-03-22T10:09:57.256Z,13512.00
2023-03-22T10:10:57.358Z,15776.00
2023-03-22T10:11:57.230Z,18016.00
2023-03-22T10:12:57.205Z,19776.00
2023-03-22T10:13:57.204Z,22048.00
2023-03-22T10:14:57.178Z,23808.00
2023-03-22T10:15:57.297Z,26592.00
2023-03-22T10:16:57.161Z,35296.00
2023-03-22T10:17:57.156Z,50144.00
2023-03-22T10:18:57.131Z,48768.00
2023-03-22T10:19:57.119Z,38400.00
2023-03-22T10:20:57.117Z,43264.00
2023-03-22T10:21:57.696Z,45312.00
2023-03-22T10:22:57.094Z,50560.00
2023-03-22T10:23:57.081Z,53408.00
2023-03-22T10:24:57.066Z,48864.00
2023-03-22T10:25:57.047Z,37312.00
2023-03-22T10:26:57.058Z,37120.00
2023-03-22T10:27:57.975Z,57792.00
2023-03-22T10:28:57.009Z,60768.00
2023-03-22T10:29:57.003Z,53504.00
2023-03-22T10:30:56.996Z,55488.00
2023-03-22T10:31:57.161Z,57664.00
2023-03-22T10:32:58.241Z,37792.00
2023-03-22T10:33:56.959Z,29728.00
2023-03-22T10:34:56.934Z,40736.00
2023-03-22T10:35:57.056Z,35072.00
2023-03-22T10:36:56.911Z,35168.00
2023-03-22T10:37:56.895Z,25792.00
2023-03-22T10:38:56.888Z,23104.00
2023-03-22T10:39:56.872Z,26272.00
2023-03-22T10:40:56.876Z,30944.00
2023-03-22T10:41:58.063Z,37920.00
2023-03-22T10:42:56.866Z,37632.00
2023-03-22T10:43:56.827Z,26624.00
2023-03-22T10:44:56.806Z,18688.00
2023-03-22T10:45:56.821Z,20960.00
2023-03-22T10:46:56.853Z,22560.00
2023-03-22T10:47:56.836Z,29024.00
2023-03-22T10:48:56.762Z,40384.00
2023-03-22T10:49:56.887Z,46976.00
2023-03-22T10:50:56.733Z,44928.00
2023-03-22T10:51:56.717Z,35776.00
2023-03-22T10:52:56.703Z,31264.00
2023-03-22T10:53:56.696Z,35168.00
2023-03-22T10:55:00.182Z,31872.00
2023-03-22T10:55:56.689Z,28608.00
2023-03-22T10:56:56.692Z,13964.00
2023-03-22T10:57:56.642Z,12312.00
2023-03-22T10:58:56.675Z,10636.00
2023-03-22T10:59:56.628Z,10364.00
2023-03-22T11:00:56.922Z,11824.00
2023-03-22T11:01:56.848Z,13192.00
2023-03-22T11:02:56.737Z,16960.00
2023-03-22T11:03:56.565Z,14528.00
2023-03-22T11:04:56.556Z,19072.00
2023-03-22T11:05:56.539Z,22208.00
2023-03-22T11:06:56.605Z,24672.00
2023-03-22T11:07:56.520Z,25312.00
2023-03-22T11:08:56.515Z,14240.00
2023-03-22T11:09:56.494Z,22496.00
2023-03-22T11:10:56.541Z,24288.00
2023-03-22T11:11:56.480Z,15360.00
2023-03-22T11:12:56.460Z,16544.00
2023-03-22T11:13:56.441Z,14752.00
2023-03-22T11:14:56.452Z,17408.00
2023-03-22T11:15:56.421Z,14272.00
2023-03-22T11:16:56.397Z,14272.00
2023-03-22T11:17:56.386Z,13352.00
2023-03-22T11:18:56.372Z,18112.00
2023-03-22T11:19:56.408Z,17920.00
2023-03-22T11:20:56.348Z,23776.00
2023-03-22T11:21:56.337Z,20096.00
2023-03-22T11:22:56.334Z,30528.00
2023-03-22T11:23:56.314Z,41248.00
2023-03-22T11:24:56.292Z,46272.00
2023-03-22T11:25:56.285Z,35712.00
2023-03-22T11:26:56.471Z,23232.00
2023-03-22T11:27:56.306Z,16960.00
2023-03-22T11:28:56.238Z,14352.00
2023-03-22T11:29:56.235Z,14204.00
2023-03-22T11:30:56.244Z,15456.00
2023-03-22T11:31:56.486Z,50688.00
2023-03-22T11:32:56.258Z,32224.00
2023-03-22T11:33:56.172Z,46272.00
2023-03-22T11:34:56.161Z,53696.00
2023-03-22T11:35:56.244Z,56000.00
2023-03-22T11:36:56.145Z,53888.00
2023-03-22T11:37:56.141Z,55584.00
2023-03-22T11:38:56.103Z,57024.00
2023-03-22T11:39:56.091Z,56512.00
2023-03-22T11:40:56.111Z,56416.00
2023-03-22T11:41:56.073Z,55904.00
2023-03-22T11:42:56.074Z,54048.00
2023-03-22T11:43:56.047Z,51072.00
2023-03-22T11:44:56.034Z,58144.00
2023-03-22T11:45:56.072Z,59264.00
2023-03-22T11:46:56.041Z,30752.00
2023-03-22T11:47:56.097Z,29408.00
2023-03-22T11:48:56.380Z,35520.00
2023-03-22T11:49:55.972Z,43232.00
2023-03-22T11:50:56.003Z,37120.00
2023-03-22T11:51:55.944Z,30144.00
2023-03-22T11:52:55.933Z,28384.00
2023-03-22T11:53:55.923Z,28608.00
2023-03-22T11:54:55.930Z,28384.00
2023-03-22T11:55:55.911Z,24544.00
2023-03-22T11:56:55.902Z,26528.00
2023-03-22T11:57:55.915Z,26656.00
2023-03-22T11:58:55.863Z,28032.00
2023-03-22T11:59:55.838Z,28224.00
2023-03-22T12:00:55.832Z,35680.00
2023-03-22T12:01:55.815Z,40256.00
2023-03-22T12:02:55.868Z,37120.00
2023-03-22T12:03:55.970Z,25536.00
2023-03-22T12:04:55.842Z,28704.00
2023-03-22T12:05:55.785Z,29952.00
2023-03-22T12:06:55.750Z,33216.00
2023-03-22T12:07:55.735Z,38944.00
2023-03-22T12:08:55.734Z,47072.00
2023-03-22T12:09:55.723Z,43488.00
2023-03-22T12:10:55.691Z,47552.00
2023-03-22T12:11:55.685Z,47776.00
2023-03-22T12:12:55.668Z,35936.00
2023-03-22T12:13:55.666Z,56800.00
2023-03-22T12:14:55.646Z,51776.00
2023-03-22T12:15:55.722Z,44160.00
2023-03-22T12:16:55.621Z,48832.00
2023-03-22T12:17:55.673Z,58464.00
2023-03-22T12:18:55.620Z,59392.00
2023-03-22T12:19:55.582Z,59648.00
2023-03-22T12:20:55.586Z,53632.00
2023-03-22T12:21:55.555Z,52064.00
2023-03-22T12:22:55.548Z,57952.00
2023-03-22T12:23:55.530Z,58272.00
2023-03-22T12:24:55.513Z,49184.00